Time;durP1;ratioP1;P1;durP2;ratioP2;P2;SDS_P1;SDS_P2;PMS_P1;PMS_P2;Temp;Humidity;BMP_temperature;BMP_pressure;BME280_temperature;BME280_humidity;BME280_pressure;Samples;Min_cycle;Max_cycle;Signal;HPM_P1;HPM_P2
2023/04/12 00:00:34;;;;;;;35.42;19.80;;;;;;;15.88;44.11;93009.00;4975098;28;20074;-92
2023/04/12 00:03:02;;;;;;;27.75;17.80;;;;;;;15.85;44.22;93010.75;4986318;28;20030;-91
2023/04/12 00:05:29;;;;;;;33.30;20.63;;;;;;;15.80;43.95;93002.63;4981167;28;20231;-91
2023/04/12 00:07:55;;;;;;;30.65;17.92;;;;;;;15.88;44.08;93003.56;4982971;28;20043;-92
2023/04/12 00:10:20;;;;;;;31.92;19.50;;;;;;;15.82;44.39;93002.84;4978386;28;20373;-92
2023/04/12 00:12:46;;;;;;;30.00;19.10;;;;;;;15.84;44.34;92998.38;5016238;28;20411;-92
2023/04/12 00:15:12;;;;;;;27.95;18.23;;;;;;;15.80;44.21;92992.47;4985615;28;20579;-92
2023/04/12 00:17:38;;;;;;;28.50;17.85;;;;;;;15.85;43.86;92988.94;5001474;28;20385;-91
2023/04/12 00:20:10;;;;;;;29.33;17.23;;;;;;;15.87;44.10;92978.28;4984934;28;20535;-91
2023/04/12 00:22:36;;;;;;;31.13;18.58;;;;;;;15.81;44.15;92979.56;4970887;28;20057;-92
2023/04/12 00:25:01;;;;;;;28.27;17.65;;;;;;;15.79;44.22;92976.63;4982084;28;20046;-92
2023/04/12 00:27:27;;;;;;;29.33;19.38;;;;;;;15.85;43.87;92977.31;4996266;28;20041;-91
2023/04/12 00:29:53;;;;;;;28.88;17.83;;;;;;;15.84;43.99;92970.38;4977028;28;20034;-91
2023/04/12 00:32:19;;;;;;;24.58;16.77;;;;;;;15.87;44.09;92964.66;4983845;28;20053;-91
2023/04/12 00:34:45;;;;;;;27.73;16.70;;;;;;;15.85;43.80;92950.78;4985050;28;20029;-91
2023/04/12 00:37:10;;;;;;;26.08;16.10;;;;;;;15.91;44.04;92953.50;4984668;28;20047;-92
2023/04/12 00:39:35;;;;;;;24.15;15.75;;;;;;;15.85;43.97;92955.50;4962604;28;20038;-92
2023/04/12 00:42:06;;;;;;;26.88;16.85;;;;;;;15.83;44.22;92952.53;4981449;28;20406;-91
2023/04/12 00:44:32;;;;;;;27.67;17.20;;;;;;;15.81;44.49;92947.59;4946963;28;20101;-92
2023/04/12 00:46:58;;;;;;;27.38;17.90;;;;;;;15.78;44.03;92948.63;4965643;28;20046;-92
2023/04/12 00:49:29;;;;;;;28.10;16.80;;;;;;;15.87;43.62;92945.56;4984950;28;20044;-92
2023/04/12 00:52:02;;;;;;;25.92;15.90;;;;;;;15.77;44.13;92939.72;4988883;28;20034;-92
2023/04/12 00:54:28;;;;;;;24.63;16.45;;;;;;;15.76;44.07;92932.03;4987127;28;20868;-91
2023/04/12 00:56:56;;;;;;;24.77;15.50;;;;;;;15.87;43.93;92928.47;4974172;28;20038;-90
2023/04/12 00:59:21;;;;;;;23.25;16.23;;;;;;;15.89;43.89;92936.91;4967044;28;20731;-91
2023/04/12 01:01:48;;;;;;;26.23;16.25;;;;;;;15.80;43.96;92931.75;4980881;28;20054;-92
2023/04/12 01:04:13;;;;;;;27.50;16.80;;;;;;;15.81;43.92;92919.59;4986446;28;20042;-90
2023/04/12 01:07:02;;;;;;;24.63;14.38;;;;;;;15.82;44.02;92929.25;4975900;28;20046;-90
2023/04/12 01:09:40;;;;;;;27.90;16.13;;;;;;;15.79;43.77;92916.66;4968933;28;20049;-90
2023/04/12 01:12:14;;;;;;;23.27;13.65;;;;;;;15.85;43.93;92922.78;5008197;28;20109;-92
2023/04/12 01:14:51;;;;;;;20.80;14.52;;;;;;;15.79;43.57;92909.22;5019270;28;20041;-91
2023/04/12 01:17:19;;;;;;;24.05;16.13;;;;;;;15.72;43.91;92910.50;4970494;28;20531;-91
2023/04/12 01:19:53;;;;;;;19.40;13.15;;;;;;;15.81;44.03;92905.97;4976926;28;20050;-91
2023/04/12 01:22:44;;;;;;;23.52;15.90;;;;;;;15.75;43.98;92898.59;4991568;28;20042;-91
2023/04/12 01:25:23;;;;;;;23.73;15.25;;;;;;;15.79;43.92;92905.75;4993581;28;20098;-90
2023/04/12 01:27:55;;;;;;;27.20;16.52;;;;;;;15.77;44.04;92896.09;4982911;28;20053;-91
2023/04/12 01:30:21;;;;;;;22.52;15.38;;;;;;;15.75;43.70;92903.31;4976666;28;20085;-90
2023/04/12 01:32:52;;;;;;;26.88;15.75;;;;;;;15.75;43.76;92895.88;4959550;28;20038;-90
2023/04/12 01:35:18;;;;;;;25.05;15.60;;;;;;;15.73;44.11;92895.63;4976380;28;20038;-91
2023/04/12 01:37:43;;;;;;;23.77;14.80;;;;;;;15.80;43.60;92897.09;4977858;28;20037;-91
2023/04/12 01:40:09;;;;;;;22.85;14.77;;;;;;;15.74;44.10;92896.38;4996082;28;20069;-91
2023/04/12 01:42:35;;;;;;;21.58;14.90;;;;;;;15.77;43.70;92879.00;4977948;28;20100;-91
2023/04/12 01:45:02;;;;;;;24.10;15.05;;;;;;;15.77;43.59;92896.09;5011745;28;20049;-91
2023/04/12 01:47:27;;;;;;;22.33;14.73;;;;;;;15.69;44.19;92886.97;4994902;28;20057;-91
2023/04/12 01:50:00;;;;;;;20.88;13.35;;;;;;;15.69;44.20;92880.78;4979671;28;20489;-91
2023/04/12 01:52:26;;;;;;;25.02;14.82;;;;;;;15.69;43.99;92886.97;4995070;28;20042;-91
2023/04/12 01:54:52;;;;;;;23.58;13.43;;;;;;;15.77;43.72;92889.91;4996233;28;20030;-90
2023/04/12 01:57:17;;;;;;;19.38;12.85;;;;;;;15.80;43.82;92877.25;4969865;28;20410;-91
2023/04/12 01:59:44;;;;;;;17.63;11.80;;;;;;;15.82;43.63;92886.38;4980483;28;20102;-90
2023/04/12 02:02:10;;;;;;;20.63;12.35;;;;;;;15.82;43.72;92880.94;4988767;28;20365;-91
2023/04/12 02:04:36;;;;;;;24.92;14.05;;;;;;;15.73;43.83;92871.09;4998965;28;20045;-90
2023/04/12 02:07:01;;;;;;;21.17;12.88;;;;;;;15.79;43.68;92875.78;4965469;28;20042;-90
2023/04/12 02:09:27;;;;;;;23.20;13.48;;;;;;;15.75;43.64;92878.78;4962087;28;20041;-90
2023/04/12 02:11:52;;;;;;;21.70;12.63;;;;;;;15.73;43.85;92871.09;4982768;28;20034;-91
2023/04/12 02:14:18;;;;;;;21.17;13.13;;;;;;;15.73;43.87;92862.94;4981614;28;20492;-91
2023/04/12 02:16:44;;;;;;;21.05;13.45;;;;;;;15.73;43.87;92857.47;4990625;28;20058;-90
2023/04/12 02:19:10;;;;;;;22.52;13.77;;;;;;;15.71;43.84;92870.88;4962690;28;20042;-91
2023/04/12 02:21:40;;;;;;;21.65;13.52;;;;;;;15.72;43.84;92866.16;4962336;28;20042;-90
2023/04/12 02:24:06;;;;;;;18.90;12.73;;;;;;;15.69;43.49;92857.00;4977009;28;20046;-90
2023/04/12 02:26:31;;;;;;;17.63;12.65;;;;;;;15.73;44.07;92867.63;4959461;28;20050;-90
2023/04/12 02:28:58;;;;;;;22.65;12.82;;;;;;;15.68;43.68;92849.34;4962633;28;20521;-90
2023/04/12 02:31:23;;;;;;;20.63;13.52;;;;;;;15.65;43.63;92842.91;4965626;28;20053;-91
2023/04/12 02:33:50;;;;;;;22.15;12.95;;;;;;;15.65;43.67;92842.16;4980789;28;20045;-91
2023/04/12 02:36:15;;;;;;;21.42;12.60;;;;;;;15.64;44.02;92844.16;4985797;28;20030;-90
2023/04/12 02:38:41;;;;;;;18.15;12.25;;;;;;;15.69;43.90;92837.19;4974247;28;20038;-91
2023/04/12 02:41:07;;;;;;;19.48;12.57;;;;;;;15.65;44.10;92837.47;4971402;28;20042;-91
2023/04/12 02:43:33;;;;;;;15.35;10.10;;;;;;;15.77;43.69;92829.97;4989655;28;20080;-91
2023/04/12 02:45:59;;;;;;;17.20;11.82;;;;;;;15.69;43.85;92824.31;4980981;28;20031;-91
2023/04/12 02:48:24;;;;;;;21.38;11.30;;;;;;;15.74;43.85;92826.25;4975033;28;20061;-90
2023/04/12 02:50:50;;;;;;;18.38;11.80;;;;;;;15.74;43.54;92833.69;4971700;28;20050;-91
2023/04/12 02:53:15;;;;;;;18.00;12.13;;;;;;;15.66;44.04;92832.75;4999614;28;20045;-90
2023/04/12 02:55:41;;;;;;;18.05;12.13;;;;;;;15.66;43.81;92824.59;5006223;28;20049;-90
2023/04/12 02:58:06;;;;;;;17.38;12.57;;;;;;;15.64;44.05;92827.81;4975851;28;20049;-91
2023/04/12 03:00:37;;;;;;;18.80;11.80;;;;;;;15.74;43.46;92817.34;4979572;28;20042;-91
2023/04/12 03:03:07;;;;;;;17.17;11.57;;;;;;;15.70;43.80;92816.88;4978017;28;20521;-91
2023/04/12 03:05:33;;;;;;;18.17;12.23;;;;;;;15.66;43.94;92819.88;5000040;28;20035;-91
2023/04/12 03:07:58;;;;;;;18.50;11.63;;;;;;;15.66;43.62;92813.69;5008348;28;20092;-91
2023/04/12 03:10:23;;;;;;;16.63;11.45;;;;;;;15.67;44.03;92818.63;4986232;28;20022;-90
2023/04/12 03:12:56;;;;;;;19.00;10.88;;;;;;;15.66;43.85;92813.69;4983211;28;20054;-91
2023/04/12 03:15:22;;;;;;;18.50;11.05;;;;;;;15.62;43.78;92805.78;4985816;28;20097;-90
2023/04/12 03:17:48;;;;;;;15.45;10.60;;;;;;;15.66;43.65;92806.25;4986055;28;20038;-90
2023/04/12 03:20:16;;;;;;;17.70;10.70;;;;;;;15.78;43.40;92806.91;4985000;28;20073;-91
2023/04/12 03:22:41;;;;;;;19.73;11.27;;;;;;;15.72;43.27;92787.13;4982154;28;20034;-90
2023/04/12 03:25:09;;;;;;;15.20;10.48;;;;;;;15.74;43.33;92798.28;5004197;28;20092;-91
2023/04/12 03:27:34;;;;;;;15.73;9.85;;;;;;;15.70;43.49;92793.09;5005236;28;20026;-91
2023/04/12 03:30:00;;;;;;;16.98;11.07;;;;;;;15.66;43.55;92783.72;4986324;28;20049;-91
2023/04/12 03:32:26;;;;;;;15.40;9.38;;;;;;;15.70;43.63;92782.19;4988573;28;20037;-91
2023/04/12 03:34:51;;;;;;;13.75;9.95;;;;;;;15.65;43.77;92785.69;4987807;28;20072;-91
2023/04/12 03:37:17;;;;;;;16.23;10.63;;;;;;;15.70;43.66;92784.91;4960766;28;20046;-87
2023/04/12 03:39:46;;;;;;;22.85;10.80;;;;;;;15.71;43.48;92786.41;4958855;28;20047;-93
2023/04/12 03:42:12;;;;;;;17.30;10.02;;;;;;;15.75;43.42;92786.88;4970543;28;20126;-86
2023/04/12 03:44:37;;;;;;;12.95;8.90;;;;;;;15.81;43.39;92786.78;4966861;28;20038;-88
2023/04/12 03:47:04;;;;;;;16.55;10.32;;;;;;;15.78;43.56;92776.94;4970127;28;20105;-87
2023/04/12 03:49:29;;;;;;;17.88;10.60;;;;;;;15.81;43.13;92772.44;4987669;28;20042;-88
2023/04/12 03:51:57;;;;;;;25.25;13.43;;;;;;;15.73;43.64;92769.53;4951029;28;20038;-88
2023/04/12 03:54:23;;;;;;;20.45;11.23;;;;;;;15.71;43.76;92769.31;4985702;28;20046;-89
2023/04/12 03:56:50;;;;;;;18.65;11.60;;;;;;;15.66;43.63;92770.84;4945420;28;20042;-91
2023/04/12 03:59:15;;;;;;;19.48;12.07;;;;;;;15.74;43.34;92758.13;4945461;28;20043;-92
2023/04/12 04:01:42;;;;;;;240.82;31.45;;;;;;;15.58;41.79;92763.72;4937249;28;20049;-87
2023/04/12 04:04:07;;;;;;;117.95;22.70;;;;;;;15.58;41.45;92772.66;4962449;28;20110;-88
2023/04/12 04:06:33;;;;;;;117.55;21.00;;;;;;;15.59;41.57;92768.66;4973377;28;20074;-91
2023/04/12 04:09:00;;;;;;;62.70;18.38;;;;;;;15.54;41.94;92760.50;4989894;28;20043;-89
2023/04/12 04:11:26;;;;;;;98.95;38.00;;;;;;;15.35;40.78;92766.59;4969367;28;20039;-90
2023/04/12 04:13:52;;;;;;;83.63;33.40;;;;;;;15.23;40.46;92762.47;4990951;28;20093;-86
2023/04/12 04:16:18;;;;;;;78.25;32.85;;;;;;;15.27;40.79;92762.94;4970926;28;20047;-86
2023/04/12 04:18:44;;;;;;;64.57;26.60;;;;;;;15.18;40.20;92760.50;4975743;28;20038;-86
2023/04/12 04:21:09;;;;;;;54.28;23.83;;;;;;;15.22;39.83;92757.53;4957857;28;20063;-86
2023/04/12 04:23:43;;;;;;;48.92;24.25;;;;;;;15.30;40.17;92774.81;4981027;28;20050;-86
2023/04/12 04:26:09;;;;;;;64.55;27.83;;;;;;;15.31;40.38;92768.84;5004492;28;20516;-84
2023/04/12 04:28:38;;;;;;;73.43;25.88;;;;;;;15.35;41.00;92752.97;5004996;28;20065;-85
2023/04/12 04:31:05;;;;;;;83.68;24.75;;;;;;;15.41;41.35;92771.97;4987691;28;20037;-85
2023/04/12 04:33:32;;;;;;;96.22;25.35;;;;;;;15.51;42.16;92766.97;4999189;28;20038;-86
2023/04/12 04:35:58;;;;;;;65.95;25.23;;;;;;;15.50;42.05;92762.78;4964606;28;20030;-87
2023/04/12 04:38:25;;;;;;;64.63;23.08;;;;;;;15.50;42.07;92758.06;4964264;28;20069;-88
2023/04/12 04:40:52;;;;;;;62.65;22.73;;;;;;;15.61;42.64;92773.59;4957178;28;20045;-86
2023/04/12 04:43:20;;;;;;;51.63;20.38;;;;;;;15.60;42.26;92764.69;4980175;28;20069;-87
2023/04/12 04:45:49;;;;;;;56.78;22.95;;;;;;;15.55;42.23;92762.72;4961647;28;20727;-86
2023/04/12 04:48:17;;;;;;;67.65;22.95;;;;;;;15.49;42.19;92759.31;4975398;28;20068;-85
2023/04/12 04:50:44;;;;;;;57.08;22.10;;;;;;;15.61;42.16;92759.97;4988843;28;20058;-88
2023/04/12 04:53:09;;;;;;;47.80;22.42;;;;;;;15.64;42.20;92758.97;4956529;28;20042;-88
2023/04/12 04:55:34;;;;;;;59.13;24.70;;;;;;;15.70;42.41;92757.66;5004680;28;20058;-88
2023/04/12 04:58:00;;;;;;;61.40;23.52;;;;;;;15.63;42.02;92768.38;4957496;28;20042;-85
2023/04/12 05:00:26;;;;;;;63.70;23.77;;;;;;;15.64;42.25;92765.16;4976172;28;20053;-84
2023/04/12 05:02:51;;;;;;;57.88;22.85;;;;;;;15.60;42.02;92764.69;4973977;28;20073;-87
2023/04/12 05:05:16;;;;;;;51.85;22.58;;;;;;;15.63;42.30;92768.38;4972985;28;20101;-88
2023/04/12 05:07:42;;;;;;;55.00;26.25;;;;;;;15.63;42.30;92766.38;4970308;28;20081;-86
2023/04/12 05:10:09;;;;;;;75.88;32.40;;;;;;;15.69;42.07;92753.47;4959610;28;20046;-87
2023/04/12 05:12:36;;;;;;;76.10;33.08;;;;;;;15.78;42.30;92755.13;4971854;28;20066;-86
2023/04/12 05:15:02;;;;;;;80.28;38.65;;;;;;;15.74;42.13;92755.41;4967287;28;20046;-86
2023/04/12 05:17:28;;;;;;;93.72;41.13;;;;;;;15.78;42.28;92755.13;4952825;28;20042;-88
2023/04/12 05:19:54;;;;;;;91.68;40.83;;;;;;;15.79;41.79;92759.34;4970368;28;20132;-86
2023/04/12 05:22:22;;;;;;;70.35;39.42;;;;;;;15.80;42.34;92763.53;4980006;28;21262;-85
2023/04/12 05:24:49;;;;;;;85.72;40.30;;;;;;;15.84;41.95;92763.97;4976558;28;20042;-86
2023/04/12 05:27:15;;;;;;;105.40;43.65;;;;;;;15.84;42.10;92755.81;4959423;28;20042;-88
2023/04/12 05:29:42;;;;;;;113.63;53.28;;;;;;;15.88;42.30;92758.25;4975575;28;20534;-89
2023/04/12 05:32:08;;;;;;;134.93;59.75;;;;;;;15.92;41.99;92756.72;4976138;28;20061;-88
2023/04/12 05:34:34;;;;;;;180.82;82.40;;;;;;;15.86;42.10;92760.75;4999514;28;20031;-86
2023/04/12 05:37:01;;;;;;;151.55;71.63;;;;;;;15.95;41.81;92749.53;4959838;28;20039;-86
2023/04/12 05:39:26;;;;;;;147.13;73.15;;;;;;;16.02;42.08;92744.22;4966711;28;20042;-87
2023/04/12 05:41:52;;;;;;;133.85;68.35;;;;;;;16.03;41.90;92750.41;4987467;28;20034;-85
2023/04/12 05:44:17;;;;;;;134.13;67.15;;;;;;;15.95;42.46;92749.53;4987560;28;20038;-87
2023/04/12 05:46:43;;;;;;;143.82;69.10;;;;;;;15.95;41.86;92744.81;4957642;28;20042;-89
2023/04/12 05:49:08;;;;;;;127.55;61.40;;;;;;;16.05;42.08;92740.47;4971667;28;20049;-88
2023/04/12 05:51:34;;;;;;;133.02;64.43;;;;;;;15.99;42.03;92736.34;4974620;28;20667;-88
2023/04/12 05:54:00;;;;;;;158.57;74.95;;;;;;;15.94;42.04;92743.34;4986812;28;20066;-89
2023/04/12 05:56:25;;;;;;;164.25;77.47;;;;;;;15.96;42.06;92742.81;4958307;28;20045;-86
2023/04/12 05:58:51;;;;;;;143.25;74.72;;;;;;;16.00;42.11;92732.38;5006570;28;20043;-87
2023/04/12 06:01:18;;;;;;;135.75;68.35;;;;;;;16.03;42.32;92729.34;4964324;28;20042;-87
2023/04/12 06:03:43;;;;;;;172.00;76.75;;;;;;;16.02;42.35;92727.88;4965370;28;20107;-85
2023/04/12 06:06:09;;;;;;;137.95;68.97;;;;;;;15.99;42.01;92728.91;4963915;28;20042;-89
2023/04/12 06:08:36;;;;;;;151.93;73.47;;;;;;;16.05;42.49;92726.09;4944987;28;20716;-85
2023/04/12 06:11:04;;;;;;;153.25;70.38;;;;;;;16.12;42.28;92725.56;4942556;28;20034;-85
2023/04/12 06:13:29;;;;;;;161.20;79.25;;;;;;;16.11;42.15;92721.34;4961295;28;20050;-84
2023/04/12 06:15:55;;;;;;;153.98;76.88;;;;;;;16.08;42.17;92719.63;4972489;28;20053;-85
2023/04/12 06:18:20;;;;;;;152.35;76.10;;;;;;;16.09;42.52;92716.41;4971426;28;20835;-85
2023/04/12 06:20:45;;;;;;;166.10;80.32;;;;;;;16.06;42.61;92716.69;4955393;28;20129;-87
2023/04/12 06:23:11;;;;;;;140.82;72.90;;;;;;;16.06;42.05;92717.41;4972102;28;20049;-86
2023/04/12 06:25:37;;;;;;;172.52;83.15;;;;;;;16.03;42.25;92710.25;4938612;28;20058;-87
2023/04/12 06:28:03;;;;;;;149.73;77.93;;;;;;;16.15;42.23;92710.16;4974283;28;20053;-87
2023/04/12 06:30:28;;;;;;;128.18;63.25;;;;;;;16.21;42.22;92700.66;4955248;28;20511;-85
2023/04/12 06:32:54;;;;;;;123.90;63.47;;;;;;;16.17;42.49;92694.75;4962635;28;20039;-85
2023/04/12 06:35:20;;;;;;;125.25;64.68;;;;;;;16.15;42.10;92689.09;4988169;28;20310;-87
2023/04/12 06:37:45;;;;;;;121.57;60.55;;;;;;;16.23;41.96;92697.44;4987813;28;20129;-86
2023/04/12 06:40:11;;;;;;;126.68;62.95;;;;;;;16.18;42.50;92692.78;4973114;28;20041;-87
2023/04/12 06:42:37;;;;;;;139.68;65.10;;;;;;;16.20;42.46;92693.00;4989905;28;20045;-87
2023/04/12 06:45:03;;;;;;;129.95;64.13;;;;;;;16.20;42.54;92687.53;4980057;28;20074;-87
2023/04/12 06:47:29;;;;;;;132.10;59.72;;;;;;;16.16;42.41;92682.38;4973702;28;20046;-89
2023/04/12 06:49:56;;;;;;;142.95;60.63;;;;;;;16.23;42.52;92684.53;4990595;28;20048;-87
2023/04/12 06:52:24;;;;;;;125.45;59.83;;;;;;;16.15;42.86;92666.53;4971070;28;20046;-87
2023/04/12 06:54:49;;;;;;;128.32;59.40;;;;;;;16.13;42.40;92671.75;4983219;28;20039;-87
2023/04/12 06:57:15;;;;;;;141.20;60.60;;;;;;;16.23;42.89;92661.97;4950364;28;20042;-87
2023/04/12 06:59:40;;;;;;;110.82;41.58;;;;;;;16.08;41.25;92665.13;4973504;28;20046;-89
2023/04/12 07:02:06;;;;;;;108.47;38.47;;;;;;;16.03;41.52;92655.75;4956944;28;20038;-86
2023/04/12 07:04:32;;;;;;;93.25;34.58;;;;;;;16.17;41.99;92653.13;4973211;28;20045;-86
2023/04/12 07:06:57;;;;;;;81.28;33.85;;;;;;;16.13;41.92;92658.13;4993779;28;20401;-86
2023/04/12 07:09:23;;;;;;;88.97;32.70;;;;;;;16.16;41.58;92666.03;4985821;28;20042;-87
2023/04/12 07:11:48;;;;;;;70.93;33.58;;;;;;;16.11;42.04;92658.63;4969427;28;20100;-88
2023/04/12 07:14:15;;;;;;;85.72;36.75;;;;;;;16.16;42.56;92648.91;4980422;28;20042;-87
2023/04/12 07:16:42;;;;;;;110.20;43.45;;;;;;;16.20;42.45;92661.00;4988852;28;20043;-86
2023/04/12 07:19:08;;;;;;;114.35;43.20;;;;;;;16.19;42.68;92647.91;4988231;28;20401;-85
2023/04/12 07:21:33;;;;;;;116.53;43.45;;;;;;;16.22;42.59;92655.78;4987999;28;20065;-89
2023/04/12 07:23:59;;;;;;;104.10;41.78;;;;;;;16.19;42.39;92647.91;4978190;28;20042;-90
2023/04/12 07:26:25;;;;;;;104.55;39.70;;;;;;;16.20;42.53;92652.09;4971264;28;20453;-90
2023/04/12 07:28:52;;;;;;;105.10;44.83;;;;;;;16.22;42.79;92649.59;4990846;28;20104;-88
2023/04/12 07:31:17;;;;;;;120.68;46.30;;;;;;;16.18;42.45;92649.16;4990214;28;20093;-85
2023/04/12 07:33:43;;;;;;;117.85;48.55;;;;;;;16.21;42.45;92643.41;4988903;28;20051;-86
2023/04/12 07:36:09;;;;;;;126.43;56.60;;;;;;;16.21;42.50;92637.94;4967953;28;20065;-88
2023/04/12 07:38:35;;;;;;;109.00;52.60;;;;;;;16.25;42.83;92621.28;4973719;28;20038;-86
2023/04/12 07:41:00;;;;;;;123.22;53.22;;;;;;;16.23;42.68;92632.72;4971192;28;20045;-85
2023/04/12 07:43:25;;;;;;;118.80;55.03;;;;;;;16.27;42.92;92637.84;4989436;28;20053;-88
2023/04/12 07:45:53;;;;;;;116.05;53.05;;;;;;;16.31;42.21;92627.41;4970520;28;20049;-85
2023/04/12 07:48:19;;;;;;;158.23;55.33;;;;;;;16.27;42.53;92629.69;4970568;28;20089;-84
2023/04/12 07:50:45;;;;;;;168.57;55.53;;;;;;;16.34;42.69;92613.47;4972188;28;20086;-86
2023/04/12 07:53:18;;;;;;;225.05;67.85;;;;;;;16.31;42.81;92603.59;4990773;28;20045;-86
2023/04/12 07:55:43;;;;;;;167.07;57.67;;;;;;;16.39;42.81;92609.94;4984272;28;20031;-86
2023/04/12 07:58:09;;;;;;;175.60;58.13;;;;;;;16.40;42.46;92607.94;4984400;28;20631;-86
2023/04/12 08:00:34;;;;;;;183.75;61.53;;;;;;;16.33;42.72;92603.81;4970796;28;20086;-86
2023/04/12 08:03:00;;;;;;;131.00;57.67;;;;;;;16.35;43.02;92604.03;4988774;28;20069;-88
2023/04/12 08:05:25;;;;;;;137.45;59.45;;;;;;;16.35;43.08;92592.38;4973196;28;20050;-87
2023/04/12 08:07:50;;;;;;;141.60;54.90;;;;;;;16.36;43.01;92599.31;4969361;28;20058;-86
2023/04/12 08:10:16;;;;;;;138.00;60.58;;;;;;;16.37;42.68;92601.53;4969502;28;20468;-85
2023/04/12 08:12:42;;;;;;;141.85;61.30;;;;;;;16.35;42.65;92595.13;4953449;28;20046;-87
2023/04/12 08:15:08;;;;;;;137.77;68.03;;;;;;;16.39;43.02;92590.84;4971843;28;20050;-85
2023/04/12 08:17:33;;;;;;;187.00;80.75;;;;;;;16.36;42.61;92580.97;4972087;28;20125;-87
2023/04/12 08:19:59;;;;;;;290.77;103.22;;;;;;;16.40;42.66;92575.94;4954611;28;20062;-86
2023/04/12 08:22:25;;;;;;;284.67;103.40;;;;;;;16.42;43.16;92567.25;4968475;28;20125;-86
2023/04/12 08:24:51;;;;;;;238.77;94.50;;;;;;;16.41;42.78;92576.69;4988673;28;20050;-88
2023/04/12 08:27:17;;;;;;;241.00;100.35;;;;;;;16.43;42.51;92579.66;4992692;28;20046;-88
2023/04/12 08:29:43;;;;;;;254.55;110.18;;;;;;;16.45;43.14;92577.13;4954505;28;20057;-87
2023/04/12 08:32:11;;;;;;;253.35;107.43;;;;;;;16.42;42.54;92559.81;4968622;28;20035;-88
2023/04/12 08:34:36;;;;;;;264.50;127.47;;;;;;;16.47;43.04;92550.06;4956995;28;20046;-88
2023/04/12 08:37:02;;;;;;;291.90;135.13;;;;;;;16.50;43.10;92561.91;4963999;28;20287;-86
2023/04/12 08:39:27;;;;;;;267.88;122.78;;;;;;;16.48;42.58;92565.16;4949706;28;20041;-86
2023/04/12 08:41:53;;;;;;;268.25;137.73;;;;;;;16.57;43.12;92567.53;4958303;28;20041;-86
2023/04/12 08:44:19;;;;;;;249.35;118.70;;;;;;;16.51;43.49;92550.50;4977616;28;20441;-86
2023/04/12 08:46:44;;;;;;;294.52;126.43;;;;;;;16.53;43.25;92553.44;4972662;28;20564;-86
2023/04/12 08:49:10;;;;;;;368.27;137.57;;;;;;;16.56;43.45;92549.69;4993755;28;20068;-86
2023/04/12 08:51:36;;;;;;;319.42;133.85;;;;;;;16.53;43.22;92552.69;4990371;28;20137;-86
2023/04/12 08:54:03;;;;;;;328.40;134.77;;;;;;;16.44;42.99;92554.56;4972902;28;20190;-87
2023/04/12 08:56:29;;;;;;;296.85;127.82;;;;;;;16.49;43.58;92547.53;4970005;28;20038;-87
2023/04/12 08:58:55;;;;;;;262.33;127.05;;;;;;;16.50;43.18;92551.00;4974827;28;20096;-88
2023/04/12 09:01:20;;;;;;;256.35;128.80;;;;;;;16.45;42.75;92542.38;4988811;28;20065;-89
2023/04/12 09:03:45;;;;;;;288.27;138.57;;;;;;;16.46;43.12;92537.66;4977897;28;20470;-89
2023/04/12 09:06:11;;;;;;;281.05;139.02;;;;;;;16.45;43.34;92541.66;4976139;28;20053;-89
2023/04/12 09:08:37;;;;;;;279.70;140.45;;;;;;;16.46;43.07;92546.59;4986826;28;20038;-88
2023/04/12 09:11:20;;;;;;;297.45;152.80;;;;;;;16.45;42.60;92539.66;4962766;28;20074;-90
2023/04/12 09:13:55;;;;;;;198.90;101.00;;;;;;;16.60;42.85;92535.72;4970752;28;20058;-92
2023/04/12 09:16:35;;;;;;;171.02;75.50;;;;;;;16.51;42.15;92531.41;4976555;28;20042;-89
2023/04/12 09:19:03;;;;;;;141.90;62.60;;;;;;;16.42;40.72;92527.06;4960904;28;20085;-90
2023/04/12 09:21:29;;;;;;;187.68;61.28;;;;;;;16.53;40.93;92528.88;4969428;28;20077;-91
2023/04/12 09:24:14;;;;;;;150.48;54.03;;;;;;;16.38;40.64;92518.44;4961031;28;20045;-89
2023/04/12 09:26:42;;;;;;;130.93;55.97;;;;;;;16.44;41.06;92512.91;4976869;28;20115;-90
2023/04/12 09:29:22;;;;;;;176.35;71.13;;;;;;;16.40;41.27;92517.94;4982071;28;20122;-89
2023/04/12 09:32:00;;;;;;;161.82;70.63;;;;;;;16.42;41.58;92507.97;4994533;28;20071;-89
2023/04/12 09:34:27;;;;;;;205.45;88.88;;;;;;;16.48;42.36;92510.59;4988402;28;20035;-90
2023/04/12 09:36:53;;;;;;;256.00;105.20;;;;;;;16.34;41.53;92501.66;4991945;28;20038;-91
2023/04/12 09:39:31;;;;;;;246.68;101.82;;;;;;;16.44;41.53;92502.00;4990807;28;20062;-91
2023/04/12 09:42:06;;;;;;;220.57;91.50;;;;;;;16.48;42.17;92501.69;4989109;28;20779;-91
2023/04/12 09:44:33;;;;;;;198.73;91.50;;;;;;;16.51;42.44;92487.00;4966089;28;20053;-91
2023/04/12 09:46:59;;;;;;;225.05;96.75;;;;;;;16.50;42.20;92486.28;4955891;28;20564;-92
2023/04/12 09:49:38;;;;;;;204.55;98.68;;;;;;;16.54;42.40;92483.97;4957717;28;20042;-88
2023/04/12 09:52:05;;;;;;;219.60;104.32;;;;;;;16.57;42.39;92479.47;4947522;28;20447;-89
2023/04/12 09:54:32;;;;;;;233.32;114.95;;;;;;;16.50;42.21;92478.09;4972157;28;20146;-88
2023/04/12 09:56:57;;;;;;;159.10;63.60;;;;;;;16.50;41.29;92480.06;4965763;28;20046;-90
2023/04/12 09:59:23;;;;;;;186.93;79.47;;;;;;;16.50;40.49;92477.34;4946310;28;20686;-89
2023/04/12 10:01:49;;;;;;;238.38;82.15;;;;;;;16.50;40.97;92467.16;4959665;28;20042;-89
2023/04/12 10:04:14;;;;;;;220.55;85.40;;;;;;;16.58;41.74;92467.31;4953129;28;20495;-90
2023/04/12 10:06:40;;;;;;;179.88;79.50;;;;;;;16.50;41.96;92467.16;4972965;28;20042;-91
2023/04/12 10:09:07;;;;;;;171.07;80.53;;;;;;;16.51;41.79;92460.47;4972717;28;20048;-90
2023/04/12 10:11:33;;;;;;;206.48;86.10;;;;;;;16.50;41.43;92458.25;4989215;28;20042;-89
2023/04/12 10:13:58;;;;;;;194.82;80.10;;;;;;;16.53;41.99;92452.50;4986985;28;20073;-90
2023/04/12 10:16:25;;;;;;;144.75;67.90;;;;;;;16.49;40.54;92451.31;4989990;28;20038;-90
2023/04/12 10:18:51;;;;;;;101.93;48.28;;;;;;;16.51;39.71;92444.09;4975351;28;20038;-90
2023/04/12 10:21:16;;;;;;;59.90;27.13;;;;;;;16.46;39.50;92434.75;4991707;28;20073;-90
2023/04/12 10:23:46;;;;;;;51.72;21.80;;;;;;;16.39;38.25;92434.63;4983440;28;20042;-90
2023/04/12 10:26:11;;;;;;;53.03;21.88;;;;;;;16.40;38.96;92436.84;4971622;28;20102;-89
2023/04/12 10:28:36;;;;;;;56.47;24.80;;;;;;;16.42;38.62;92444.50;4964408;28;20039;-88
2023/04/12 10:31:29;;;;;;;57.78;24.92;;;;;;;16.34;38.23;92444.38;4959979;28;20516;-89
2023/04/12 10:33:54;;;;;;;45.65;22.02;;;;;;;16.36;38.44;92447.31;4977228;28;20030;-89
2023/04/12 10:36:20;;;;;;;172.13;28.38;;;;;;;16.33;38.90;92445.63;4946993;28;20104;-90
2023/04/12 10:38:46;;;;;;;136.10;27.83;;;;;;;16.29;38.12;92444.47;4939326;28;20041;-89
2023/04/12 10:41:12;;;;;;;96.32;27.48;;;;;;;16.30;38.58;92443.19;4954053;28;20053;-90
2023/04/12 10:43:38;;;;;;;150.48;37.25;;;;;;;16.36;39.33;92436.41;4971400;28;20659;-90
2023/04/12 10:46:05;;;;;;;100.97;35.03;;;;;;;16.46;39.00;92431.28;4974604;28;20542;-90
2023/04/12 10:48:50;;;;;;;108.60;35.95;;;;;;;16.37;38.97;92426.25;4974263;28;20132;-93
2023/04/12 10:51:26;;;;;;;70.75;33.53;;;;;;;16.41;40.46;92429.41;4938986;28;20050;-90
2023/04/12 10:53:53;;;;;;;84.63;38.20;;;;;;;16.44;40.35;92431.81;4940627;28;20085;-90
2023/04/12 10:56:30;;;;;;;91.35;34.97;;;;;;;16.42;40.23;92425.41;4955221;28;20053;-92
2023/04/12 10:58:57;;;;;;;85.47;33.42;;;;;;;16.42;40.43;92428.16;4980342;28;20042;-86
2023/04/12 11:01:23;;;;;;;116.90;38.08;;;;;;;16.39;40.21;92421.72;4936269;28;20050;-88
2023/04/12 11:04:13;;;;;;;97.30;38.20;;;;;;;16.49;40.75;92413.13;4957796;28;20456;-88
2023/04/12 11:06:51;;;;;;;141.02;42.78;;;;;;;16.44;41.01;92412.00;4972528;28;20559;-91
2023/04/12 11:09:32;;;;;;;144.13;47.05;;;;;;;16.40;41.20;92415.03;4977741;28;20493;-90
2023/04/12 11:12:04;;;;;;;104.18;43.22;;;;;;;16.44;41.53;92406.53;4983110;28;20077;-86